createdAt,value
2023-01-10T00:00:26.839Z,0.00
2023-01-10T00:01:26.712Z,0.00
2023-01-10T00:02:26.717Z,0.00
2023-01-10T00:03:26.660Z,0.00
2023-01-10T00:04:26.712Z,0.00
2023-01-10T00:05:26.603Z,0.00
2023-01-10T00:06:26.580Z,0.00
2023-01-10T00:07:26.549Z,0.00
2023-01-10T00:08:26.515Z,0.00
2023-01-10T00:09:26.512Z,0.00
2023-01-10T00:10:26.470Z,0.00
2023-01-10T00:11:26.436Z,0.00
2023-01-10T00:12:26.441Z,0.00
2023-01-10T00:13:26.380Z,0.00
2023-01-10T00:14:26.352Z,0.00
2023-01-10T00:15:26.332Z,0.00
2023-01-10T00:16:26.298Z,0.00
2023-01-10T00:17:26.280Z,0.00
2023-01-10T00:18:26.243Z,0.00
2023-01-10T00:19:26.281Z,0.00
2023-01-10T00:20:26.186Z,0.00
2023-01-10T00:21:26.165Z,0.00
2023-01-10T00:22:26.132Z,0.00
2023-01-10T00:23:26.105Z,0.00
2023-01-10T00:24:26.081Z,0.00
2023-01-10T00:25:26.048Z,0.00
2023-01-10T00:26:26.020Z,0.00
2023-01-10T00:27:25.996Z,0.00
2023-01-10T00:28:25.981Z,0.00
2023-01-10T00:29:25.937Z,0.00
2023-01-10T00:30:25.906Z,0.00
2023-01-10T00:31:25.980Z,0.00
2023-01-10T00:32:25.860Z,0.00
2023-01-10T00:33:25.846Z,0.00
2023-01-10T00:34:25.801Z,0.00
2023-01-10T00:35:25.768Z,0.00
2023-01-10T00:36:25.743Z,0.00
2023-01-10T00:37:25.717Z,0.00
2023-01-10T00:38:25.693Z,0.00
2023-01-10T00:39:25.680Z,0.00
2023-01-10T00:40:25.641Z,0.00
2023-01-10T00:41:25.604Z,0.00
2023-01-10T00:42:25.575Z,0.00
2023-01-10T00:43:25.549Z,0.00
2023-01-10T00:44:25.541Z,0.00
2023-01-10T00:45:25.494Z,0.00
2023-01-10T00:46:25.508Z,0.00
2023-01-10T00:47:25.437Z,0.00
2023-01-10T00:48:25.407Z,0.00
2023-01-10T00:49:25.381Z,0.00
2023-01-10T00:50:25.350Z,0.00
2023-01-10T00:51:25.324Z,0.00
2023-01-10T00:52:25.296Z,0.00
2023-01-10T00:53:25.279Z,0.00
2023-01-10T00:54:25.240Z,0.00
2023-01-10T00:55:25.216Z,0.00
2023-01-10T00:56:25.184Z,0.00
2023-01-10T00:57:25.168Z,0.00
2023-01-10T00:58:25.129Z,0.00
2023-01-10T00:59:25.130Z,0.00
2023-01-10T01:00:25.103Z,0.00
2023-01-10T01:01:25.195Z,0.00
2023-01-10T01:02:25.150Z,0.00
2023-01-10T01:03:24.991Z,0.00
2023-01-10T01:04:24.963Z,0.00
2023-01-10T01:05:24.934Z,0.00
2023-01-10T01:06:24.904Z,0.00
2023-01-10T01:07:24.879Z,0.00
2023-01-10T01:08:24.849Z,0.00
2023-01-10T01:09:24.821Z,0.00
2023-01-10T01:10:24.793Z,0.00
2023-01-10T01:11:24.766Z,0.00
2023-01-10T01:12:24.733Z,0.00
2023-01-10T01:13:24.708Z,0.00
2023-01-10T01:14:24.699Z,0.00
2023-01-10T01:15:24.653Z,0.00
2023-01-10T01:16:24.644Z,0.00
2023-01-10T01:17:24.601Z,0.00
2023-01-10T01:18:24.574Z,0.00
2023-01-10T01:19:24.572Z,0.00
2023-01-10T01:20:24.514Z,0.00
2023-01-10T01:21:24.482Z,0.00
2023-01-10T01:22:24.465Z,0.00
2023-01-10T01:23:24.439Z,0.00
2023-01-10T01:24:24.399Z,0.00
2023-01-10T01:25:24.378Z,0.00
2023-01-10T01:26:24.347Z,0.00
2023-01-10T01:27:24.319Z,0.00
2023-01-10T01:28:24.303Z,0.00
2023-01-10T01:29:26.244Z,0.00
2023-01-10T01:30:24.235Z,0.00
2023-01-10T01:31:24.280Z,0.00
2023-01-10T01:32:24.203Z,0.00
2023-01-10T01:33:24.148Z,0.00
2023-01-10T01:34:24.120Z,0.00
2023-01-10T01:35:24.093Z,0.00
2023-01-10T01:36:24.063Z,0.00
2023-01-10T01:37:24.046Z,0.00
2023-01-10T01:38:24.005Z,0.00
2023-01-10T01:39:23.980Z,0.00
2023-01-10T01:40:23.961Z,0.00
2023-01-10T01:41:23.923Z,0.00
2023-01-10T01:42:23.893Z,0.00
2023-01-10T01:43:23.869Z,0.00
2023-01-10T01:44:23.838Z,0.00
2023-01-10T01:45:23.814Z,0.00
2023-01-10T01:46:23.813Z,0.00
2023-01-10T01:47:23.757Z,0.00
2023-01-10T01:48:23.768Z,0.00
2023-01-10T01:49:23.701Z,0.00
2023-01-10T01:50:23.675Z,0.00
2023-01-10T01:51:23.642Z,0.00
2023-01-10T01:52:23.611Z,0.00
2023-01-10T01:53:23.587Z,0.00
2023-01-10T01:54:23.559Z,0.00
2023-01-10T01:55:23.530Z,0.00
2023-01-10T01:56:23.522Z,0.00
2023-01-10T01:57:23.475Z,0.00
2023-01-10T01:58:23.444Z,0.00
2023-01-10T01:59:23.421Z,0.00
2023-01-10T02:00:23.391Z,0.00
2023-01-10T02:01:23.493Z,0.00
2023-01-10T02:02:23.471Z,0.00
2023-01-10T02:03:23.359Z,0.00
2023-01-10T02:04:23.379Z,0.00
2023-01-10T02:05:23.249Z,0.00
2023-01-10T02:06:23.218Z,0.00
2023-01-10T02:07:23.197Z,0.00
2023-01-10T02:08:23.170Z,0.00
2023-01-10T02:09:23.149Z,0.00
2023-01-10T02:10:23.108Z,0.00
2023-01-10T02:11:23.093Z,0.00
2023-01-10T02:12:23.053Z,0.00
2023-01-10T02:13:23.025Z,0.00
2023-01-10T02:14:22.997Z,0.00
2023-01-10T02:15:22.971Z,0.00
2023-01-10T02:16:22.940Z,0.00
2023-01-10T02:17:22.930Z,0.00
2023-01-10T02:18:22.881Z,0.00
2023-01-10T02:19:22.855Z,0.00
2023-01-10T02:20:22.845Z,0.00
2023-01-10T02:21:22.802Z,0.00
2023-01-10T02:22:22.779Z,0.00
2023-01-10T02:23:22.746Z,0.00
2023-01-10T02:24:22.716Z,0.00
2023-01-10T02:25:22.689Z,0.00
2023-01-10T02:26:22.665Z,0.00
2023-01-10T02:27:22.630Z,0.00
2023-01-10T02:28:22.602Z,0.00
2023-01-10T02:29:22.575Z,0.00
2023-01-10T02:30:22.546Z,0.00
2023-01-10T02:31:22.568Z,0.00
2023-01-10T02:32:35.604Z,0.00
2023-01-10T02:33:22.463Z,0.00
2023-01-10T02:34:22.433Z,0.00
2023-01-10T02:35:22.411Z,0.00
2023-01-10T02:36:22.398Z,0.00
2023-01-10T02:37:22.349Z,0.00
2023-01-10T02:38:22.321Z,0.00
2023-01-10T02:39:22.295Z,0.00
2023-01-10T02:40:22.266Z,0.00
2023-01-10T02:41:22.237Z,0.00
2023-01-10T02:42:22.216Z,0.00
2023-01-10T02:43:22.182Z,0.00
2023-01-10T02:44:22.155Z,0.00
2023-01-10T02:45:22.128Z,0.00
2023-01-10T02:46:22.128Z,0.00
2023-01-10T02:47:22.078Z,0.00
2023-01-10T02:48:22.045Z,0.00
2023-01-10T02:49:22.013Z,0.00
2023-01-10T02:50:21.984Z,0.00
2023-01-10T02:51:21.960Z,0.00
2023-01-10T02:52:21.949Z,0.00
2023-01-10T02:53:21.906Z,0.00
2023-01-10T02:54:21.885Z,0.00
2023-01-10T02:55:21.844Z,0.00
2023-01-10T02:56:21.818Z,0.00
2023-01-10T02:57:21.788Z,0.00
2023-01-10T02:58:21.759Z,0.00
2023-01-10T02:59:21.737Z,0.00
2023-01-10T03:00:21.710Z,0.00
2023-01-10T03:01:21.729Z,0.00
2023-01-10T03:02:21.648Z,0.00
2023-01-10T03:03:21.623Z,0.00
2023-01-10T03:04:21.592Z,0.00
2023-01-10T03:05:21.565Z,0.00
2023-01-10T03:06:21.536Z,0.00
2023-01-10T03:07:21.508Z,0.00
2023-01-10T03:08:21.500Z,0.00
2023-01-10T03:09:21.454Z,0.00
2023-01-10T03:10:21.425Z,0.00
2023-01-10T03:11:21.412Z,0.00
2023-01-10T03:12:21.371Z,0.00
2023-01-10T03:13:21.341Z,0.00
2023-01-10T03:14:21.315Z,0.00
2023-01-10T03:15:21.294Z,0.00
2023-01-10T03:16:21.373Z,0.00
2023-01-10T03:17:21.228Z,0.00
2023-01-10T03:18:21.198Z,0.00
2023-01-10T03:19:21.178Z,0.00
2023-01-10T03:20:21.150Z,0.00
2023-01-10T03:21:21.115Z,0.00
2023-01-10T03:22:21.090Z,0.00
2023-01-10T03:23:21.061Z,0.00
2023-01-10T03:24:21.056Z,0.00
2023-01-10T03:25:21.003Z,0.00
2023-01-10T03:26:20.977Z,0.00
2023-01-10T03:27:20.947Z,0.00
2023-01-10T03:28:20.922Z,0.00
2023-01-10T03:29:20.890Z,0.00
2023-01-10T03:30:20.876Z,0.00
2023-01-10T03:31:20.889Z,0.00
2023-01-10T03:32:20.811Z,0.00
2023-01-10T03:33:20.774Z,0.00
2023-01-10T03:34:20.754Z,0.00
2023-01-10T03:35:20.724Z,0.00
2023-01-10T03:36:20.696Z,0.00
2023-01-10T03:37:20.667Z,0.00
2023-01-10T03:38:20.645Z,0.00
2023-01-10T03:39:20.609Z,0.00
2023-01-10T03:40:20.600Z,0.00
2023-01-10T03:41:20.552Z,0.00
2023-01-10T03:42:20.524Z,0.00
2023-01-10T03:43:20.494Z,0.00
2023-01-10T03:44:20.468Z,0.00
2023-01-10T03:45:20.441Z,0.00
2023-01-10T03:46:20.418Z,0.00
2023-01-10T03:47:20.386Z,0.00
2023-01-10T03:48:20.354Z,0.00
2023-01-10T03:49:20.325Z,0.00
2023-01-10T03:50:20.299Z,0.00
2023-01-10T03:51:20.272Z,0.00
2023-01-10T03:52:20.243Z,0.00
2023-01-10T03:53:20.215Z,0.00
2023-01-10T03:54:20.190Z,0.00
2023-01-10T03:55:20.159Z,0.00
2023-01-10T03:56:20.146Z,0.00
2023-01-10T03:57:20.098Z,0.00
2023-01-10T03:58:20.072Z,0.00
2023-01-10T03:59:20.045Z,0.00
2023-01-10T04:00:20.018Z,0.00
2023-01-10T04:01:20.084Z,0.00
2023-01-10T04:02:19.959Z,0.00
2023-01-10T04:03:19.931Z,0.00
2023-01-10T04:04:20.090Z,0.00
2023-01-10T04:05:19.873Z,0.00
2023-01-10T04:06:19.851Z,0.00
2023-01-10T04:07:19.816Z,0.00
2023-01-10T04:08:19.786Z,0.00
2023-01-10T04:09:19.763Z,0.00
2023-01-10T04:10:19.766Z,0.00
2023-01-10T04:11:19.704Z,0.00
2023-01-10T04:12:19.701Z,0.00
2023-01-10T04:13:19.649Z,0.00
2023-01-10T04:14:19.617Z,0.00
2023-01-10T04:15:19.590Z,0.00
2023-01-10T04:16:19.645Z,0.00
2023-01-10T04:17:19.540Z,0.00
2023-01-10T04:18:19.512Z,0.00
2023-01-10T04:19:19.481Z,0.00
2023-01-10T04:20:19.456Z,0.00
2023-01-10T04:21:19.422Z,0.00
2023-01-10T04:22:19.393Z,0.00
2023-01-10T04:23:19.362Z,0.00
2023-01-10T04:24:19.335Z,0.00
2023-01-10T04:25:19.313Z,0.00
2023-01-10T04:26:19.285Z,0.00
2023-01-10T04:27:19.256Z,0.00
2023-01-10T04:28:19.252Z,0.00
2023-01-10T04:29:19.194Z,0.00
2023-01-10T04:30:19.173Z,0.00
2023-01-10T04:31:19.192Z,0.00
2023-01-10T04:32:19.119Z,0.00
2023-01-10T04:33:19.087Z,0.00
2023-01-10T04:34:19.054Z,0.00
2023-01-10T04:35:19.029Z,0.00
2023-01-10T04:36:19.001Z,0.00
2023-01-10T04:37:18.973Z,0.00
2023-01-10T04:38:18.942Z,0.00
2023-01-10T04:39:18.915Z,0.00
2023-01-10T04:40:18.883Z,0.00
2023-01-10T04:41:18.856Z,0.00
2023-01-10T04:42:18.828Z,0.00
2023-01-10T04:43:18.811Z,0.00
2023-01-10T04:44:18.790Z,0.00
2023-01-10T04:45:18.742Z,0.00
2023-01-10T04:46:18.720Z,0.00
2023-01-10T04:47:18.684Z,0.00
2023-01-10T04:48:18.659Z,0.00
2023-01-10T04:49:18.631Z,0.00
2023-01-10T04:50:18.607Z,0.00
2023-01-10T04:51:18.569Z,0.00
2023-01-10T04:52:18.548Z,0.00
2023-01-10T04:53:18.526Z,0.00
2023-01-10T04:54:18.487Z,0.00
2023-01-10T04:55:18.460Z,0.00
2023-01-10T04:56:18.439Z,0.00
2023-01-10T04:57:18.408Z,0.00
2023-01-10T04:58:18.374Z,0.00
2023-01-10T04:59:18.345Z,0.00
2023-01-10T05:00:18.344Z,0.00
2023-01-10T05:01:18.366Z,0.00
2023-01-10T05:02:18.355Z,0.00
2023-01-10T05:03:18.234Z,0.00
2023-01-10T05:04:20.722Z,0.00
2023-01-10T05:05:18.179Z,0.00
2023-01-10T05:06:18.153Z,0.00
2023-01-10T05:07:18.120Z,0.00
2023-01-10T05:08:18.095Z,0.00
2023-01-10T05:09:18.067Z,0.00
2023-01-10T05:10:18.057Z,0.00
2023-01-10T05:11:18.012Z,0.00
2023-01-10T05:12:17.986Z,0.00
2023-01-10T05:13:18.022Z,0.00
2023-01-10T05:14:17.926Z,0.00
2023-01-10T05:15:17.910Z,0.00
2023-01-10T05:16:18.009Z,0.00
2023-01-10T05:17:17.840Z,0.00
2023-01-10T05:18:17.809Z,0.00
2023-01-10T05:19:17.781Z,0.00
2023-01-10T05:20:17.754Z,0.00
2023-01-10T05:21:17.725Z,0.00
2023-01-10T05:22:17.697Z,0.00
2023-01-10T05:23:17.715Z,0.00
2023-01-10T05:24:17.645Z,0.00
2023-01-10T05:25:17.614Z,0.00
2023-01-10T05:26:17.590Z,0.00
2023-01-10T05:27:17.559Z,0.00
2023-01-10T05:28:17.529Z,0.00
2023-01-10T05:29:17.501Z,0.00
2023-01-10T05:30:17.484Z,0.00
2023-01-10T05:31:17.479Z,0.00
2023-01-10T05:32:17.433Z,0.00
2023-01-10T05:33:17.388Z,0.00
2023-01-10T05:34:17.359Z,0.00
2023-01-10T05:35:17.328Z,0.00
2023-01-10T05:36:17.307Z,0.00
2023-01-10T05:37:17.608Z,0.00
2023-01-10T05:38:17.261Z,0.00
2023-01-10T05:39:17.217Z,0.00
2023-01-10T05:40:17.188Z,0.00
2023-01-10T05:41:17.160Z,0.00
2023-01-10T05:42:17.132Z,0.00
2023-01-10T05:43:17.103Z,0.00
2023-01-10T05:44:17.076Z,0.00
2023-01-10T05:45:17.046Z,0.00
2023-01-10T05:46:17.063Z,0.00
2023-01-10T05:47:16.995Z,0.00
2023-01-10T05:48:16.982Z,0.00
2023-01-10T05:49:16.936Z,0.00
2023-01-10T05:50:18.908Z,0.00
2023-01-10T05:51:16.875Z,0.00
2023-01-10T05:52:16.850Z,0.00
2023-01-10T05:53:16.830Z,0.00
2023-01-10T05:54:16.792Z,0.00
2023-01-10T05:55:16.767Z,0.00
2023-01-10T05:56:16.745Z,0.00
2023-01-10T05:57:16.723Z,0.00
2023-01-10T05:58:16.682Z,0.00
2023-01-10T05:59:27.585Z,0.00
2023-01-10T06:00:16.627Z,0.00
2023-01-10T06:01:16.672Z,0.00
2023-01-10T06:02:16.740Z,0.00
2023-01-10T06:03:16.586Z,0.00
2023-01-10T06:04:16.530Z,0.00
2023-01-10T06:05:16.482Z,0.00
2023-01-10T06:06:16.453Z,0.00
2023-01-10T06:07:16.424Z,0.00
2023-01-10T06:08:16.396Z,0.00
2023-01-10T06:09:16.373Z,0.00
2023-01-10T06:10:16.340Z,0.00
2023-01-10T06:11:16.310Z,0.00
2023-01-10T06:12:16.283Z,0.00
2023-01-10T06:13:16.261Z,0.00
2023-01-10T06:14:16.226Z,0.00
2023-01-10T06:15:16.210Z,0.00
2023-01-10T06:16:16.190Z,0.00
2023-01-10T06:17:16.145Z,0.00
2023-01-10T06:18:16.115Z,0.00
2023-01-10T06:19:16.094Z,0.00
2023-01-10T06:20:16.074Z,0.00
2023-01-10T06:21:16.040Z,0.00
2023-01-10T06:22:15.999Z,0.00
2023-01-10T06:23:15.979Z,0.00
2023-01-10T06:24:15.945Z,0.00
2023-01-10T06:25:15.913Z,0.00
2023-01-10T06:26:15.893Z,0.00
2023-01-10T06:27:15.856Z,0.00
2023-01-10T06:28:15.835Z,0.00
2023-01-10T06:29:15.798Z,0.00
2023-01-10T06:30:15.773Z,0.00
2023-01-10T06:31:15.789Z,0.00
2023-01-10T06:32:15.722Z,0.00
2023-01-10T06:33:15.688Z,0.00
2023-01-10T06:34:15.675Z,0.00
2023-01-10T06:35:15.630Z,0.00
2023-01-10T06:36:15.623Z,0.00
2023-01-10T06:37:15.577Z,0.00
2023-01-10T06:38:15.547Z,0.00
2023-01-10T06:39:15.518Z,0.00
2023-01-10T06:40:15.490Z,0.00
2023-01-10T06:41:15.478Z,0.00
2023-01-10T06:42:15.438Z,0.00
2023-01-10T06:43:15.403Z,0.00
2023-01-10T06:44:15.384Z,0.00
2023-01-10T06:45:15.352Z,0.00
2023-01-10T06:46:15.363Z,0.00
2023-01-10T06:47:15.290Z,0.00
2023-01-10T06:48:15.310Z,0.00
2023-01-10T06:49:15.236Z,0.00
2023-01-10T06:50:15.208Z,0.00
2023-01-10T06:51:15.182Z,0.00
2023-01-10T06:52:15.167Z,0.00
2023-01-10T06:53:15.130Z,0.00
2023-01-10T06:54:15.100Z,0.00
2023-01-10T06:55:15.064Z,0.00
2023-01-10T06:56:15.056Z,0.00
2023-01-10T06:57:15.009Z,0.00
2023-01-10T06:58:14.981Z,0.00
2023-01-10T06:59:14.950Z,0.00
2023-01-10T07:00:14.928Z,0.00
2023-01-10T07:01:15.082Z,0.00
2023-01-10T07:02:14.919Z,0.00
2023-01-10T07:03:14.840Z,0.00
2023-01-10T07:04:14.835Z,0.00
2023-01-10T07:05:14.779Z,0.00
2023-01-10T07:06:14.758Z,0.00
2023-01-10T07:07:14.729Z,0.00
2023-01-10T07:08:14.722Z,0.00
2023-01-10T07:09:14.666Z,0.00
2023-01-10T07:10:14.639Z,0.00
2023-01-10T07:11:14.617Z,0.00
2023-01-10T07:12:14.584Z,0.00
2023-01-10T07:13:14.551Z,0.00
2023-01-10T07:14:14.525Z,0.00
2023-01-10T07:15:14.500Z,0.00
2023-01-10T07:16:14.498Z,0.00
2023-01-10T07:17:14.441Z,0.00
2023-01-10T07:18:14.416Z,0.00
2023-01-10T07:19:14.386Z,4.00
2023-01-10T07:20:14.357Z,4.00
2023-01-10T07:21:14.329Z,4.00
2023-01-10T07:22:14.298Z,4.00
2023-01-10T07:23:14.274Z,0.00
2023-01-10T07:24:14.261Z,4.00
2023-01-10T07:25:14.216Z,4.00
2023-01-10T07:26:14.186Z,0.00
2023-01-10T07:27:14.161Z,4.00
2023-01-10T07:28:14.135Z,4.00
2023-01-10T07:29:14.101Z,0.00
2023-01-10T07:30:14.084Z,4.00
2023-01-10T07:31:14.128Z,0.00
2023-01-10T07:32:14.015Z,4.00
2023-01-10T07:33:13.987Z,4.00
2023-01-10T07:34:13.971Z,4.00
2023-01-10T07:35:13.933Z,4.00
2023-01-10T07:36:13.908Z,0.00
2023-01-10T07:37:13.872Z,4.00
2023-01-10T07:38:13.845Z,0.00
2023-01-10T07:39:13.816Z,0.00
2023-01-10T07:40:13.805Z,4.00
2023-01-10T07:41:13.761Z,4.00
2023-01-10T07:42:13.733Z,4.00
2023-01-10T07:43:13.703Z,4.00
2023-01-10T07:44:13.672Z,4.00
2023-01-10T07:45:13.650Z,4.00
2023-01-10T07:46:13.681Z,4.00
2023-01-10T07:47:13.629Z,8.00
2023-01-10T07:48:13.559Z,8.00
2023-01-10T07:49:13.532Z,8.00
2023-01-10T07:50:13.499Z,8.00
2023-01-10T07:51:13.491Z,8.00
2023-01-10T07:52:13.444Z,8.00
2023-01-10T07:53:13.421Z,8.00
2023-01-10T07:54:14.852Z,4.00
2023-01-10T07:55:13.367Z,8.00
2023-01-10T07:56:13.423Z,8.00
2023-01-10T07:57:13.305Z,12.00
2023-01-10T07:58:13.272Z,12.00
2023-01-10T07:59:13.252Z,12.00
2023-01-10T08:00:13.216Z,16.00
2023-01-10T08:01:13.228Z,16.00
2023-01-10T08:02:13.240Z,12.00
2023-01-10T08:03:13.430Z,20.00
2023-01-10T08:04:13.105Z,16.00
2023-01-10T08:05:13.077Z,24.00
2023-01-10T08:06:14.827Z,36.00
2023-01-10T08:07:13.021Z,40.00
2023-01-10T08:08:12.997Z,40.00
2023-01-10T08:09:13.015Z,48.00
2023-01-10T08:10:13.024Z,56.00
2023-01-10T08:11:12.908Z,60.00
2023-01-10T08:12:12.894Z,76.00
2023-01-10T08:13:18.761Z,72.00
2023-01-10T08:14:12.878Z,72.00
2023-01-10T08:15:12.793Z,68.00
2023-01-10T08:16:12.816Z,80.00
2023-01-10T08:17:12.740Z,84.00
2023-01-10T08:18:12.706Z,88.00
2023-01-10T08:19:12.693Z,92.00
2023-01-10T08:20:12.652Z,92.00
2023-01-10T08:21:12.635Z,96.00
2023-01-10T08:22:12.599Z,96.00
2023-01-10T08:23:12.562Z,100.00
2023-01-10T08:24:12.536Z,100.00
2023-01-10T08:25:12.507Z,100.00
2023-01-10T08:26:12.485Z,104.00
2023-01-10T08:27:12.451Z,104.00
2023-01-10T08:28:12.441Z,104.00
2023-01-10T08:29:12.395Z,104.00
2023-01-10T08:30:12.364Z,100.00
2023-01-10T08:31:12.367Z,104.00
2023-01-10T08:32:12.322Z,104.00
2023-01-10T08:33:12.282Z,108.00
2023-01-10T08:34:12.252Z,112.00
2023-01-10T08:35:12.228Z,108.00
2023-01-10T08:36:12.194Z,116.00
2023-01-10T08:37:12.172Z,108.00
2023-01-10T08:38:12.135Z,112.00
2023-01-10T08:39:12.113Z,112.00
2023-01-10T08:40:12.093Z,116.00
2023-01-10T08:41:12.056Z,116.00
2023-01-10T08:42:12.025Z,116.00
2023-01-10T08:43:11.996Z,112.00
2023-01-10T08:44:11.981Z,112.00
2023-01-10T08:45:11.944Z,92.00
2023-01-10T08:46:11.948Z,84.00
2023-01-10T08:47:11.881Z,92.00
2023-01-10T08:48:11.851Z,108.00
2023-01-10T08:49:11.825Z,124.00
2023-01-10T08:50:11.790Z,136.00
2023-01-10T08:51:11.773Z,156.00
2023-01-10T08:52:11.748Z,172.00
2023-01-10T08:53:11.729Z,180.00
2023-01-10T08:54:11.682Z,176.00
2023-01-10T08:55:11.658Z,188.00
2023-01-10T08:56:11.628Z,188.00
2023-01-10T08:57:11.601Z,208.00
2023-01-10T08:58:11.570Z,228.00
2023-01-10T08:59:11.539Z,248.00
2023-01-10T09:00:11.552Z,220.00
2023-01-10T09:01:11.524Z,188.00
2023-01-10T09:02:11.515Z,192.00
2023-01-10T09:03:11.502Z,200.00
2023-01-10T09:04:11.396Z,212.00
2023-01-10T09:05:22.151Z,212.00
2023-01-10T09:06:11.337Z,176.00
2023-01-10T09:07:11.399Z,148.00
2023-01-10T09:08:11.342Z,168.00
2023-01-10T09:09:11.286Z,176.00
2023-01-10T09:10:11.232Z,228.00
2023-01-10T09:11:11.197Z,280.00
2023-01-10T09:12:11.168Z,260.00
2023-01-10T09:13:11.142Z,240.00
2023-01-10T09:14:11.109Z,244.00
2023-01-10T09:15:11.088Z,236.00
2023-01-10T09:16:11.198Z,236.00
2023-01-10T09:17:11.043Z,244.00
2023-01-10T09:18:10.996Z,252.00
2023-01-10T09:19:10.979Z,304.00
2023-01-10T09:20:10.941Z,292.00
2023-01-10T09:21:10.913Z,308.00
2023-01-10T09:22:10.880Z,348.00
2023-01-10T09:23:10.857Z,348.00
2023-01-10T09:24:10.893Z,352.00
2023-01-10T09:25:10.798Z,372.00
2023-01-10T09:26:10.778Z,376.00
2023-01-10T09:27:10.744Z,360.00
2023-01-10T09:28:10.711Z,420.00
2023-01-10T09:29:10.685Z,420.00
2023-01-10T09:30:10.665Z,496.00
2023-01-10T09:31:10.677Z,548.00
2023-01-10T09:32:10.620Z,320.00
2023-01-10T09:33:10.578Z,796.00
2023-01-10T09:34:10.543Z,892.00
2023-01-10T09:35:10.563Z,1012.00
2023-01-10T09:36:10.483Z,856.00
2023-01-10T09:37:10.461Z,1020.00
2023-01-10T09:38:10.429Z,408.00
2023-01-10T09:39:10.403Z,1152.00
2023-01-10T09:40:10.373Z,928.00
2023-01-10T09:41:10.353Z,336.00
2023-01-10T09:42:10.316Z,332.00
2023-01-10T09:43:10.287Z,276.00
2023-01-10T09:44:10.329Z,312.00
2023-01-10T09:45:10.233Z,364.00
2023-01-10T09:46:10.268Z,456.00
2023-01-10T09:47:21.756Z,456.00
2023-01-10T09:48:10.171Z,148.00
2023-01-10T09:49:10.121Z,196.00
2023-01-10T09:50:10.101Z,152.00
2023-01-10T09:51:10.106Z,176.00
2023-01-10T09:52:10.037Z,116.00
2023-01-10T09:53:10.012Z,164.00
2023-01-10T09:54:12.835Z,88.00
2023-01-10T09:55:09.950Z,248.00
2023-01-10T09:56:09.961Z,268.00
2023-01-10T09:57:09.894Z,348.00
2023-01-10T09:58:09.862Z,200.00
2023-01-10T09:59:09.836Z,116.00
2023-01-10T10:00:09.808Z,172.00
2023-01-10T10:01:09.792Z,336.00
2023-01-10T10:02:09.811Z,228.00
2023-01-10T10:03:09.743Z,168.00
2023-01-10T10:04:09.796Z,204.00
2023-01-10T10:05:09.667Z,344.00
2023-01-10T10:06:12.379Z,532.00
2023-01-10T10:07:09.614Z,428.00
2023-01-10T10:08:09.584Z,300.00
2023-01-10T10:09:09.558Z,264.00
2023-01-10T10:10:09.533Z,484.00
2023-01-10T10:11:09.501Z,1848.00
2023-01-10T10:12:09.470Z,400.00
2023-01-10T10:13:11.640Z,836.00
2023-01-10T10:14:09.411Z,3548.00
2023-01-10T10:15:09.413Z,4800.00
2023-01-10T10:16:09.440Z,1760.00
2023-01-10T10:17:09.332Z,2072.00
2023-01-10T10:18:09.299Z,3824.00
2023-01-10T10:19:09.297Z,4532.00
2023-01-10T10:20:09.264Z,4544.00
2023-01-10T10:21:09.221Z,4344.00
2023-01-10T10:22:09.187Z,3988.00
2023-01-10T10:23:09.173Z,3724.00
2023-01-10T10:24:09.138Z,3776.00
2023-01-10T10:25:09.108Z,2456.00
2023-01-10T10:26:09.093Z,3544.00
2023-01-10T10:27:09.055Z,2916.00
2023-01-10T10:28:09.038Z,1944.00
2023-01-10T10:29:09.009Z,1788.00
2023-01-10T10:30:09.052Z,1612.00
2023-01-10T10:31:09.060Z,1884.00
2023-01-10T10:32:08.928Z,1832.00
2023-01-10T10:33:08.888Z,2204.00
2023-01-10T10:34:08.856Z,2668.00
2023-01-10T10:35:08.830Z,2028.00
2023-01-10T10:36:08.827Z,788.00
2023-01-10T10:37:08.774Z,3640.00
2023-01-10T10:38:08.754Z,3820.00
2023-01-10T10:39:08.740Z,4892.00
2023-01-10T10:40:08.695Z,5356.00
2023-01-10T10:41:08.660Z,4624.00
2023-01-10T10:42:08.638Z,5968.00
2023-01-10T10:43:08.607Z,7080.00
2023-01-10T10:44:08.578Z,6964.00
2023-01-10T10:45:08.553Z,7000.00
2023-01-10T10:46:08.862Z,5284.00
2023-01-10T10:47:08.498Z,3928.00
2023-01-10T10:48:08.464Z,5348.00
2023-01-10T10:49:08.443Z,5156.00
2023-01-10T10:50:08.409Z,4960.00
2023-01-10T10:51:08.394Z,4668.00
2023-01-10T10:52:08.461Z,4248.00
2023-01-10T10:53:08.351Z,4208.00
2023-01-10T10:54:08.313Z,4356.00
2023-01-10T10:55:08.380Z,4160.00
2023-01-10T10:56:08.281Z,3252.00
2023-01-10T10:57:08.256Z,3352.00
2023-01-10T10:58:08.252Z,4144.00
2023-01-10T10:59:08.205Z,4244.00
2023-01-10T11:00:08.233Z,1672.00
2023-01-10T11:01:08.351Z,3240.00
2023-01-10T11:02:08.127Z,3156.00
2023-01-10T11:03:08.112Z,2896.00
2023-01-10T11:04:08.035Z,1804.00
2023-01-10T11:05:08.139Z,3364.00
2023-01-10T11:06:08.008Z,3332.00
2023-01-10T11:07:07.977Z,3128.00
2023-01-10T11:08:08.034Z,3120.00
2023-01-10T11:09:07.976Z,3408.00
2023-01-10T11:10:07.885Z,1076.00
2023-01-10T11:11:07.843Z,516.00
2023-01-10T11:12:07.811Z,1888.00
2023-01-10T11:13:07.785Z,3392.00
2023-01-10T11:14:07.765Z,3352.00
2023-01-10T11:15:07.733Z,3220.00
2023-01-10T11:16:07.772Z,2936.00
2023-01-10T11:17:07.677Z,2832.00
2023-01-10T11:18:07.650Z,1844.00
2023-01-10T11:19:07.621Z,680.00
2023-01-10T11:20:07.594Z,496.00
2023-01-10T11:21:07.565Z,636.00
2023-01-10T11:22:07.543Z,576.00
2023-01-10T11:23:07.510Z,504.00
2023-01-10T11:24:07.506Z,472.00
2023-01-10T11:25:07.456Z,452.00
2023-01-10T11:26:07.439Z,376.00
2023-01-10T11:27:07.423Z,376.00
2023-01-10T11:28:08.682Z,348.00
2023-01-10T11:29:07.354Z,224.00
2023-01-10T11:30:07.333Z,148.00
2023-01-10T11:31:07.318Z,168.00
2023-01-10T11:32:07.265Z,204.00
2023-01-10T11:33:07.237Z,164.00
2023-01-10T11:34:07.216Z,156.00
2023-01-10T11:35:07.181Z,132.00
2023-01-10T11:36:07.165Z,144.00
2023-01-10T11:37:07.127Z,188.00
2023-01-10T11:38:07.109Z,188.00
2023-01-10T11:39:07.080Z,200.00
2023-01-10T11:40:07.082Z,184.00
2023-01-10T11:41:07.056Z,148.00
2023-01-10T11:42:06.990Z,176.00
2023-01-10T11:43:06.999Z,172.00
2023-01-10T11:44:06.936Z,192.00
2023-01-10T11:45:06.956Z,196.00
2023-01-10T11:46:06.934Z,196.00
2023-01-10T11:47:06.863Z,196.00
2023-01-10T11:48:06.874Z,204.00
2023-01-10T11:49:08.385Z,196.00
2023-01-10T11:50:06.773Z,188.00
2023-01-10T11:51:06.763Z,140.00
2023-01-10T11:52:06.738Z,164.00
2023-01-10T11:53:06.806Z,168.00
2023-01-10T11:54:06.672Z,180.00
2023-01-10T11:55:06.633Z,168.00
2023-01-10T11:56:06.642Z,148.00
2023-01-10T11:57:06.585Z,144.00
2023-01-10T11:58:06.567Z,156.00
2023-01-10T11:59:06.527Z,140.00
2023-01-10T12:00:06.506Z,140.00
2023-01-10T12:01:06.504Z,140.00
2023-01-10T12:02:06.529Z,136.00
2023-01-10T12:03:06.406Z,128.00
2023-01-10T12:04:06.420Z,124.00
2023-01-10T12:05:06.520Z,104.00
2023-01-10T12:06:06.333Z,124.00
2023-01-10T12:07:08.486Z,136.00
2023-01-10T12:08:06.272Z,136.00
2023-01-10T12:09:06.240Z,140.00
2023-01-10T12:10:06.217Z,136.00
2023-01-10T12:11:06.187Z,136.00
2023-01-10T12:12:06.185Z,136.00
2023-01-10T12:13:06.134Z,132.00
2023-01-10T12:14:06.105Z,132.00
2023-01-10T12:15:06.084Z,136.00
2023-01-10T12:16:06.047Z,132.00
2023-01-10T12:17:06.178Z,136.00
2023-01-10T12:18:05.995Z,140.00
2023-01-10T12:19:05.965Z,140.00
2023-01-10T12:20:05.939Z,144.00
2023-01-10T12:21:05.911Z,148.00
2023-01-10T12:22:05.921Z,152.00
2023-01-10T12:23:05.878Z,152.00
2023-01-10T12:24:05.829Z,152.00
2023-01-10T12:25:05.811Z,152.00
2023-01-10T12:26:11.786Z,152.00
2023-01-10T12:27:05.739Z,156.00
2023-01-10T12:28:05.793Z,156.00
2023-01-10T12:29:05.709Z,152.00
2023-01-10T12:30:05.776Z,152.00
2023-01-10T12:31:05.795Z,148.00
2023-01-10T12:32:05.719Z,144.00
2023-01-10T12:33:05.568Z,136.00
2023-01-10T12:34:05.549Z,136.00
2023-01-10T12:35:05.520Z,128.00
2023-01-10T12:36:05.490Z,132.00
2023-01-10T12:37:05.457Z,136.00
2023-01-10T12:38:05.441Z,136.00
2023-01-10T12:39:05.402Z,132.00
2023-01-10T12:40:05.377Z,128.00
2023-01-10T12:41:05.349Z,128.00
2023-01-10T12:42:05.328Z,124.00
2023-01-10T12:43:05.292Z,124.00
2023-01-10T12:44:05.326Z,124.00
2023-01-10T12:45:05.244Z,124.00
2023-01-10T12:46:16.503Z,120.00
2023-01-10T12:47:09.155Z,120.00
2023-01-10T12:48:05.160Z,116.00
2023-01-10T12:49:05.146Z,112.00
2023-01-10T12:50:05.107Z,112.00
2023-01-10T12:51:05.072Z,108.00
2023-01-10T12:52:05.043Z,104.00
2023-01-10T12:53:05.014Z,100.00
2023-01-10T12:54:05.010Z,100.00
2023-01-10T12:55:05.145Z,96.00
2023-01-10T12:56:04.937Z,96.00
2023-01-10T12:57:04.905Z,100.00